Terminal Aerodrome Forecast
Issued by NWS

Home | Current Version | Previous Version | Text Only | Print | Product List | Glossary On
Versions: 1 2 3 4 5 6 7 8 9 10 11 12 13 14 15 16 17 18 19 20 21 22 23 24
000
FTUS42 KGSP 270540
TAFGMU
TAF
KGMU 270540Z 2706/2806 23005KT P6SM OVC080
     FM270900 24007KT P6SM SCT250
     FM271500 28010KT P6SM FEW250
     FM271700 31011KT P6SM FEW045
     FM280000 34006KT P6SM FEW250=

USA.gov is the U.S. government's official web portal to all federal, state and local government web resources and services.